Portada
METAR-TAF:

METAR-TAF

Aeropuertos :

Szolnok, Hungría

latitud: 47-07N, longitud: 020-14E, altitud: 89 m

Observación

El informe se hizo hace 25 minutos, a las 11:45 UTC
Viento 16 kt del noreste, variando entre norte y este
Temperatura 16°C
Humedad 34%
Presión 1021 hPa
Visibilidad 10 km o más
sin nubes por debajo de 1500 m y sin presencia de cumulonimbus.

METAR: LHSN 041145Z 05016KT 010V080 CAVOK 16/00 Q1021 NOSIG RMK BLU

Hora: 14:10 (12:10 UTC)

Pronóstico

El informe se hizo hace 55 minutos, a las 11:15 UTC
Pronóstico válido del 04 a las 12 UTC al 04 a las 21 UTC
Viento 12 kt del noreste con ráfagas de 22 kt
Visibilidad 10 km o más
sin nubes por debajo de 1500 m y sin presencia de cumulonimbus.
Temporalmente
del 04 a las 17 UTC al 04 a las 20 UTC
Viento 7 kt del noreste

TAF: LHSN 041115Z 0412/0421 05012G22KT CAVOK TEMPO 0417/0420 04007KT

Observaciones y pronósticos meteorológicos de más de 4000 aeropuertos (mensajes METAR y TAF).

Los puntos amarillos y rojos representan las estaciones disponibles.

Ponga el ratón en el punto deseado para ver el nombre de la estación.

Haga clic para ver las observaciones y los pronósticos meteorológicos.

Para cambiar el mapa : haga clic en los botones verdes con una cruz de color negro para hacer un zoom, en el botón verde con un guión para alejar o en las flechas verdes para mapas adyacentes.


METAR-TAF: